sensor_id;sensor_type;location;lat;lon;timestamp;P1;durP1;ratioP1;P2;durP2;ratioP2
26977;SDS011;56314;48.088;11.642;2023-06-22T00:01:00;4.57;;;2.70;;
26977;SDS011;56314;48.088;11.642;2023-06-22T00:03:25;3.38;;;2.47;;
26977;SDS011;56314;48.088;11.642;2023-06-22T00:05:51;5.75;;;3.28;;
26977;SDS011;56314;48.088;11.642;2023-06-22T00:08:18;5.40;;;3.00;;
26977;SDS011;56314;48.088;11.642;2023-06-22T00:10:43;5.28;;;3.20;;
26977;SDS011;56314;48.088;11.642;2023-06-22T00:13:09;5.60;;;3.15;;
26977;SDS011;56314;48.088;11.642;2023-06-22T00:15:36;6.20;;;3.38;;
26977;SDS011;56314;48.088;11.642;2023-06-22T00:18:03;7.88;;;3.05;;
26977;SDS011;56314;48.088;11.642;2023-06-22T00:20:29;8.63;;;3.40;;
26977;SDS011;56314;48.088;11.642;2023-06-22T00:22:55;5.28;;;3.22;;
26977;SDS011;56314;48.088;11.642;2023-06-22T00:25:21;3.60;;;2.50;;
26977;SDS011;56314;48.088;11.642;2023-06-22T00:27:47;8.57;;;3.40;;
26977;SDS011;56314;48.088;11.642;2023-06-22T00:30:13;6.05;;;2.92;;
26977;SDS011;56314;48.088;11.642;2023-06-22T00:32:39;5.07;;;3.05;;
26977;SDS011;56314;48.088;11.642;2023-06-22T00:35:04;5.10;;;2.83;;
26977;SDS011;56314;48.088;11.642;2023-06-22T00:37:30;7.95;;;3.60;;
26977;SDS011;56314;48.088;11.642;2023-06-22T00:39:55;5.50;;;2.95;;
26977;SDS011;56314;48.088;11.642;2023-06-22T00:42:21;6.88;;;3.03;;
26977;SDS011;56314;48.088;11.642;2023-06-22T00:44:47;4.22;;;3.03;;
26977;SDS011;56314;48.088;11.642;2023-06-22T00:47:15;4.60;;;3.10;;
26977;SDS011;56314;48.088;11.642;2023-06-22T00:49:43;10.20;;;3.22;;
26977;SDS011;56314;48.088;11.642;2023-06-22T00:52:09;5.15;;;3.17;;
26977;SDS011;56314;48.088;11.642;2023-06-22T00:54:39;6.63;;;3.45;;
26977;SDS011;56314;48.088;11.642;2023-06-22T00:57:10;5.75;;;2.88;;
26977;SDS011;56314;48.088;11.642;2023-06-22T00:59:37;4.45;;;3.35;;
26977;SDS011;56314;48.088;11.642;2023-06-22T01:02:04;8.55;;;3.70;;
26977;SDS011;56314;48.088;11.642;2023-06-22T01:04:37;6.40;;;3.08;;
26977;SDS011;56314;48.088;11.642;2023-06-22T01:07:08;3.38;;;2.70;;
26977;SDS011;56314;48.088;11.642;2023-06-22T01:10:01;5.10;;;2.67;;
26977;SDS011;56314;48.088;11.642;2023-06-22T01:12:33;5.75;;;3.30;;
26977;SDS011;56314;48.088;11.642;2023-06-22T01:17:40;3.88;;;3.05;;
26977;SDS011;56314;48.088;11.642;2023-06-22T01:20:08;6.63;;;3.60;;
26977;SDS011;56314;48.088;11.642;2023-06-22T01:22:42;7.25;;;3.25;;
26977;SDS011;56314;48.088;11.642;2023-06-22T01:25:26;8.95;;;3.05;;
26977;SDS011;56314;48.088;11.642;2023-06-22T01:27:58;8.70;;;3.47;;
26977;SDS011;56314;48.088;11.642;2023-06-22T01:30:40;6.47;;;3.38;;
26977;SDS011;56314;48.088;11.642;2023-06-22T01:33:07;4.25;;;3.28;;
26977;SDS011;56314;48.088;11.642;2023-06-22T01:35:36;7.18;;;3.38;;
26977;SDS011;56314;48.088;11.642;2023-06-22T01:38:03;5.82;;;2.88;;
26977;SDS011;56314;48.088;11.642;2023-06-22T01:40:29;4.43;;;2.80;;
26977;SDS011;56314;48.088;11.642;2023-06-22T01:42:55;6.70;;;3.40;;
26977;SDS011;56314;48.088;11.642;2023-06-22T01:45:21;7.25;;;3.40;;
26977;SDS011;56314;48.088;11.642;2023-06-22T01:47:47;5.68;;;3.35;;
26977;SDS011;56314;48.088;11.642;2023-06-22T01:50:13;4.82;;;3.40;;
26977;SDS011;56314;48.088;11.642;2023-06-22T01:52:38;10.10;;;3.17;;
26977;SDS011;56314;48.088;11.642;2023-06-22T01:55:04;5.57;;;3.30;;
26977;SDS011;56314;48.088;11.642;2023-06-22T01:57:30;7.90;;;3.60;;
26977;SDS011;56314;48.088;11.642;2023-06-22T02:00:01;6.05;;;3.63;;
26977;SDS011;56314;48.088;11.642;2023-06-22T02:02:27;7.70;;;4.18;;
26977;SDS011;56314;48.088;11.642;2023-06-22T02:04:59;7.50;;;3.80;;
26977;SDS011;56314;48.088;11.642;2023-06-22T02:07:34;5.75;;;3.63;;
26977;SDS011;56314;48.088;11.642;2023-06-22T02:10:06;8.73;;;4.32;;
26977;SDS011;56314;48.088;11.642;2023-06-22T02:12:34;5.63;;;4.15;;
26977;SDS011;56314;48.088;11.642;2023-06-22T02:15:01;9.93;;;4.25;;
26977;SDS011;56314;48.088;11.642;2023-06-22T02:17:26;9.88;;;4.20;;
26977;SDS011;56314;48.088;11.642;2023-06-22T02:19:52;5.88;;;3.63;;
26977;SDS011;56314;48.088;11.642;2023-06-22T02:22:17;5.75;;;3.63;;
26977;SDS011;56314;48.088;11.642;2023-06-22T02:24:43;8.20;;;4.35;;
26977;SDS011;56314;48.088;11.642;2023-06-22T02:27:08;5.75;;;3.70;;
26977;SDS011;56314;48.088;11.642;2023-06-22T02:29:34;9.75;;;4.15;;
26977;SDS011;56314;48.088;11.642;2023-06-22T02:31:59;8.32;;;3.85;;
26977;SDS011;56314;48.088;11.642;2023-06-22T02:34:24;6.13;;;3.67;;
26977;SDS011;56314;48.088;11.642;2023-06-22T02:36:50;9.13;;;3.60;;
26977;SDS011;56314;48.088;11.642;2023-06-22T02:39:19;9.10;;;4.43;;
26977;SDS011;56314;48.088;11.642;2023-06-22T02:41:47;7.55;;;3.90;;
26977;SDS011;56314;48.088;11.642;2023-06-22T02:44:12;6.65;;;4.50;;
26977;SDS011;56314;48.088;11.642;2023-06-22T02:46:38;6.85;;;4.03;;
26977;SDS011;56314;48.088;11.642;2023-06-22T02:49:03;7.13;;;4.55;;
26977;SDS011;56314;48.088;11.642;2023-06-22T02:51:30;11.02;;;5.18;;
26977;SDS011;56314;48.088;11.642;2023-06-22T02:53:58;5.35;;;4.15;;
26977;SDS011;56314;48.088;11.642;2023-06-22T02:56:24;8.57;;;4.38;;
26977;SDS011;56314;48.088;11.642;2023-06-22T02:58:49;5.30;;;4.38;;
26977;SDS011;56314;48.088;11.642;2023-06-22T03:01:15;8.27;;;5.47;;
26977;SDS011;56314;48.088;11.642;2023-06-22T03:03:40;8.32;;;4.95;;
26977;SDS011;56314;48.088;11.642;2023-06-22T03:06:06;8.15;;;4.75;;
26977;SDS011;56314;48.088;11.642;2023-06-22T03:08:31;8.93;;;5.00;;
26977;SDS011;56314;48.088;11.642;2023-06-22T03:10:56;6.05;;;4.15;;
26977;SDS011;56314;48.088;11.642;2023-06-22T03:13:22;8.77;;;4.65;;
26977;SDS011;56314;48.088;11.642;2023-06-22T03:15:48;12.73;;;5.85;;
26977;SDS011;56314;48.088;11.642;2023-06-22T03:18:13;11.27;;;5.13;;
26977;SDS011;56314;48.088;11.642;2023-06-22T03:20:38;12.77;;;5.03;;
26977;SDS011;56314;48.088;11.642;2023-06-22T03:23:04;7.05;;;4.65;;
26977;SDS011;56314;48.088;11.642;2023-06-22T03:25:30;9.07;;;5.38;;
26977;SDS011;56314;48.088;11.642;2023-06-22T03:27:55;11.15;;;5.25;;
26977;SDS011;56314;48.088;11.642;2023-06-22T03:30:21;9.60;;;5.10;;
26977;SDS011;56314;48.088;11.642;2023-06-22T03:32:46;9.88;;;5.07;;
26977;SDS011;56314;48.088;11.642;2023-06-22T03:35:12;9.15;;;4.80;;
26977;SDS011;56314;48.088;11.642;2023-06-22T03:37:38;9.43;;;4.93;;
26977;SDS011;56314;48.088;11.642;2023-06-22T03:40:04;8.98;;;4.15;;
26977;SDS011;56314;48.088;11.642;2023-06-22T03:42:30;6.93;;;4.70;;
26977;SDS011;56314;48.088;11.642;2023-06-22T03:44:56;11.10;;;4.55;;
26977;SDS011;56314;48.088;11.642;2023-06-22T03:47:21;7.50;;;4.40;;
26977;SDS011;56314;48.088;11.642;2023-06-22T03:49:47;12.63;;;5.28;;
26977;SDS011;56314;48.088;11.642;2023-06-22T03:52:12;15.15;;;5.20;;
26977;SDS011;56314;48.088;11.642;2023-06-22T03:54:38;11.27;;;5.05;;
26977;SDS011;56314;48.088;11.642;2023-06-22T03:57:03;8.27;;;4.63;;
26977;SDS011;56314;48.088;11.642;2023-06-22T03:59:29;6.50;;;4.00;;
26977;SDS011;56314;48.088;11.642;2023-06-22T04:01:54;6.20;;;4.80;;
26977;SDS011;56314;48.088;11.642;2023-06-22T04:04:19;8.00;;;4.78;;
26977;SDS011;56314;48.088;11.642;2023-06-22T04:06:45;7.63;;;4.95;;
26977;SDS011;56314;48.088;11.642;2023-06-22T04:09:11;9.07;;;5.32;;
26977;SDS011;56314;48.088;11.642;2023-06-22T04:11:37;7.72;;;5.00;;
26977;SDS011;56314;48.088;11.642;2023-06-22T04:14:02;9.70;;;5.18;;
26977;SDS011;56314;48.088;11.642;2023-06-22T04:16:28;8.45;;;4.43;;
26977;SDS011;56314;48.088;11.642;2023-06-22T04:18:53;8.13;;;5.05;;
26977;SDS011;56314;48.088;11.642;2023-06-22T04:21:19;7.72;;;5.07;;
26977;SDS011;56314;48.088;11.642;2023-06-22T04:23:44;8.95;;;6.10;;
26977;SDS011;56314;48.088;11.642;2023-06-22T04:26:11;9.63;;;4.93;;
26977;SDS011;56314;48.088;11.642;2023-06-22T04:28:36;7.60;;;5.35;;
26977;SDS011;56314;48.088;11.642;2023-06-22T04:31:02;8.32;;;5.35;;
26977;SDS011;56314;48.088;11.642;2023-06-22T04:33:28;11.82;;;5.90;;
26977;SDS011;56314;48.088;11.642;2023-06-22T04:35:57;8.07;;;5.10;;
26977;SDS011;56314;48.088;11.642;2023-06-22T04:38:23;10.52;;;5.78;;
26977;SDS011;56314;48.088;11.642;2023-06-22T04:40:49;10.23;;;6.18;;
26977;SDS011;56314;48.088;11.642;2023-06-22T04:43:15;13.13;;;5.88;;
26977;SDS011;56314;48.088;11.642;2023-06-22T04:45:40;8.38;;;5.70;;
26977;SDS011;56314;48.088;11.642;2023-06-22T04:48:06;11.95;;;6.25;;
26977;SDS011;56314;48.088;11.642;2023-06-22T04:50:31;16.17;;;6.22;;
26977;SDS011;56314;48.088;11.642;2023-06-22T04:52:57;9.95;;;5.65;;
26977;SDS011;56314;48.088;11.642;2023-06-22T04:55:23;7.78;;;5.68;;
26977;SDS011;56314;48.088;11.642;2023-06-22T04:57:50;12.63;;;6.00;;
26977;SDS011;56314;48.088;11.642;2023-06-22T05:00:17;9.07;;;5.38;;
26977;SDS011;56314;48.088;11.642;2023-06-22T05:02:44;11.45;;;5.97;;
26977;SDS011;56314;48.088;11.642;2023-06-22T05:05:11;7.75;;;6.05;;
26977;SDS011;56314;48.088;11.642;2023-06-22T05:07:45;7.95;;;5.63;;
26977;SDS011;56314;48.088;11.642;2023-06-22T05:10:13;11.90;;;5.90;;
26977;SDS011;56314;48.088;11.642;2023-06-22T05:12:39;15.40;;;5.57;;
26977;SDS011;56314;48.088;11.642;2023-06-22T05:15:09;9.25;;;5.93;;
26977;SDS011;56314;48.088;11.642;2023-06-22T05:17:34;9.93;;;5.95;;
26977;SDS011;56314;48.088;11.642;2023-06-22T05:20:01;16.50;;;6.00;;
26977;SDS011;56314;48.088;11.642;2023-06-22T05:22:26;10.68;;;5.88;;
26977;SDS011;56314;48.088;11.642;2023-06-22T05:24:52;9.98;;;5.65;;
26977;SDS011;56314;48.088;11.642;2023-06-22T05:27:17;9.52;;;6.05;;
26977;SDS011;56314;48.088;11.642;2023-06-22T05:29:42;13.40;;;5.82;;
26977;SDS011;56314;48.088;11.642;2023-06-22T05:32:08;8.57;;;5.53;;
26977;SDS011;56314;48.088;11.642;2023-06-22T05:34:34;7.57;;;5.72;;
26977;SDS011;56314;48.088;11.642;2023-06-22T05:36:59;8.45;;;6.35;;
26977;SDS011;56314;48.088;11.642;2023-06-22T05:39:25;10.82;;;5.47;;
26977;SDS011;56314;48.088;11.642;2023-06-22T05:41:53;8.63;;;5.32;;
26977;SDS011;56314;48.088;11.642;2023-06-22T05:44:18;8.23;;;5.10;;
26977;SDS011;56314;48.088;11.642;2023-06-22T05:46:44;8.27;;;5.55;;
26977;SDS011;56314;48.088;11.642;2023-06-22T05:49:14;11.57;;;5.35;;
26977;SDS011;56314;48.088;11.642;2023-06-22T05:51:40;7.80;;;5.10;;
26977;SDS011;56314;48.088;11.642;2023-06-22T05:54:05;8.15;;;5.47;;
26977;SDS011;56314;48.088;11.642;2023-06-22T05:56:30;10.27;;;5.32;;
26977;SDS011;56314;48.088;11.642;2023-06-22T05:58:56;10.93;;;5.47;;
26977;SDS011;56314;48.088;11.642;2023-06-22T06:01:21;9.90;;;5.15;;
26977;SDS011;56314;48.088;11.642;2023-06-22T06:03:47;9.63;;;5.68;;
26977;SDS011;56314;48.088;11.642;2023-06-22T06:06:13;8.55;;;5.43;;
26977;SDS011;56314;48.088;11.642;2023-06-22T06:08:39;12.18;;;6.35;;
26977;SDS011;56314;48.088;11.642;2023-06-22T06:11:04;10.95;;;6.05;;
26977;SDS011;56314;48.088;11.642;2023-06-22T06:13:29;11.43;;;5.10;;
26977;SDS011;56314;48.088;11.642;2023-06-22T06:15:55;9.05;;;5.90;;
26977;SDS011;56314;48.088;11.642;2023-06-22T06:18:21;6.40;;;4.65;;
26977;SDS011;56314;48.088;11.642;2023-06-22T06:20:46;6.32;;;5.53;;
26977;SDS011;56314;48.088;11.642;2023-06-22T06:23:12;10.18;;;5.72;;
26977;SDS011;56314;48.088;11.642;2023-06-22T06:25:37;10.25;;;5.78;;
26977;SDS011;56314;48.088;11.642;2023-06-22T06:28:02;8.82;;;5.93;;
26977;SDS011;56314;48.088;11.642;2023-06-22T06:30:28;8.35;;;5.43;;
26977;SDS011;56314;48.088;11.642;2023-06-22T06:32:53;6.93;;;5.28;;
26977;SDS011;56314;48.088;11.642;2023-06-22T06:35:19;12.43;;;5.27;;
26977;SDS011;56314;48.088;11.642;2023-06-22T06:37:46;9.00;;;5.10;;
26977;SDS011;56314;48.088;11.642;2023-06-22T06:40:14;8.48;;;5.40;;
26977;SDS011;56314;48.088;11.642;2023-06-22T06:42:40;8.38;;;5.03;;
26977;SDS011;56314;48.088;11.642;2023-06-22T06:45:09;8.95;;;4.88;;
26977;SDS011;56314;48.088;11.642;2023-06-22T06:47:40;8.70;;;5.80;;
26977;SDS011;56314;48.088;11.642;2023-06-22T06:50:06;10.37;;;5.20;;
26977;SDS011;56314;48.088;11.642;2023-06-22T06:52:32;10.57;;;5.45;;
26977;SDS011;56314;48.088;11.642;2023-06-22T06:54:58;6.45;;;4.97;;
26977;SDS011;56314;48.088;11.642;2023-06-22T06:57:23;12.10;;;5.03;;
26977;SDS011;56314;48.088;11.642;2023-06-22T06:59:53;12.27;;;5.15;;
26977;SDS011;56314;48.088;11.642;2023-06-22T07:02:19;10.90;;;5.70;;
26977;SDS011;56314;48.088;11.642;2023-06-22T07:04:45;12.15;;;5.45;;
26977;SDS011;56314;48.088;11.642;2023-06-22T07:07:11;8.65;;;4.80;;
26977;SDS011;56314;48.088;11.642;2023-06-22T07:09:37;14.07;;;5.70;;
26977;SDS011;56314;48.088;11.642;2023-06-22T07:12:02;9.20;;;5.30;;
26977;SDS011;56314;48.088;11.642;2023-06-22T07:14:28;9.95;;;5.40;;
26977;SDS011;56314;48.088;11.642;2023-06-22T07:16:53;8.37;;;5.40;;
26977;SDS011;56314;48.088;11.642;2023-06-22T07:19:24;8.23;;;4.77;;
26977;SDS011;56314;48.088;11.642;2023-06-22T07:21:50;11.52;;;5.50;;
26977;SDS011;56314;48.088;11.642;2023-06-22T07:24:16;7.88;;;5.20;;
26977;SDS011;56314;48.088;11.642;2023-06-22T07:26:41;8.40;;;5.13;;
26977;SDS011;56314;48.088;11.642;2023-06-22T07:29:10;12.75;;;5.28;;
26977;SDS011;56314;48.088;11.642;2023-06-22T07:31:35;8.50;;;4.93;;
26977;SDS011;56314;48.088;11.642;2023-06-22T07:34:01;8.52;;;5.03;;
26977;SDS011;56314;48.088;11.642;2023-06-22T07:36:27;9.85;;;5.32;;
26977;SDS011;56314;48.088;11.642;2023-06-22T07:38:55;10.98;;;5.38;;
26977;SDS011;56314;48.088;11.642;2023-06-22T07:41:20;8.32;;;4.63;;
26977;SDS011;56314;48.088;11.642;2023-06-22T07:43:45;9.50;;;5.60;;
26977;SDS011;56314;48.088;11.642;2023-06-22T07:46:11;8.93;;;5.50;;
26977;SDS011;56314;48.088;11.642;2023-06-22T07:48:37;9.73;;;5.10;;
26977;SDS011;56314;48.088;11.642;2023-06-22T07:51:03;6.40;;;4.60;;
26977;SDS011;56314;48.088;11.642;2023-06-22T07:53:28;10.13;;;5.43;;
26977;SDS011;56314;48.088;11.642;2023-06-22T07:55:53;10.57;;;5.40;;
26977;SDS011;56314;48.088;11.642;2023-06-22T07:58:19;7.63;;;5.43;;
26977;SDS011;56314;48.088;11.642;2023-06-22T08:00:45;8.70;;;5.40;;
26977;SDS011;56314;48.088;11.642;2023-06-22T08:03:11;7.93;;;5.07;;
26977;SDS011;56314;48.088;11.642;2023-06-22T08:05:36;15.70;;;5.82;;
26977;SDS011;56314;48.088;11.642;2023-06-22T08:08:02;9.02;;;5.60;;
26977;SDS011;56314;48.088;11.642;2023-06-22T08:10:27;9.48;;;5.10;;
26977;SDS011;56314;48.088;11.642;2023-06-22T08:12:52;7.45;;;4.55;;
26977;SDS011;56314;48.088;11.642;2023-06-22T08:15:18;5.68;;;5.00;;
26977;SDS011;56314;48.088;11.642;2023-06-22T08:17:44;11.13;;;5.65;;
26977;SDS011;56314;48.088;11.642;2023-06-22T08:20:11;9.90;;;6.43;;
26977;SDS011;56314;48.088;11.642;2023-06-22T08:22:42;12.30;;;5.43;;
26977;SDS011;56314;48.088;11.642;2023-06-22T08:25:08;8.95;;;5.75;;
26977;SDS011;56314;48.088;11.642;2023-06-22T08:27:34;10.82;;;5.78;;
26977;SDS011;56314;48.088;11.642;2023-06-22T08:30:00;12.57;;;6.55;;
26977;SDS011;56314;48.088;11.642;2023-06-22T08:32:29;14.18;;;6.13;;
26977;SDS011;56314;48.088;11.642;2023-06-22T08:34:55;10.95;;;6.05;;
26977;SDS011;56314;48.088;11.642;2023-06-22T08:37:22;8.45;;;5.00;;
26977;SDS011;56314;48.088;11.642;2023-06-22T08:39:55;9.95;;;5.05;;
26977;SDS011;56314;48.088;11.642;2023-06-22T08:42:21;6.60;;;5.07;;
26977;SDS011;56314;48.088;11.642;2023-06-22T08:44:48;9.30;;;6.00;;
26977;SDS011;56314;48.088;11.642;2023-06-22T08:47:13;11.50;;;5.90;;
26977;SDS011;56314;48.088;11.642;2023-06-22T08:49:38;10.93;;;5.07;;
26977;SDS011;56314;48.088;11.642;2023-06-22T08:52:04;11.98;;;5.90;;
26977;SDS011;56314;48.088;11.642;2023-06-22T08:54:29;9.95;;;5.60;;
26977;SDS011;56314;48.088;11.642;2023-06-22T08:56:58;11.57;;;5.68;;
26977;SDS011;56314;48.088;11.642;2023-06-22T08:59:23;10.35;;;4.85;;
26977;SDS011;56314;48.088;11.642;2023-06-22T09:01:48;8.43;;;4.80;;
26977;SDS011;56314;48.088;11.642;2023-06-22T09:04:14;7.80;;;4.82;;
26977;SDS011;56314;48.088;11.642;2023-06-22T09:06:40;9.90;;;5.88;;
26977;SDS011;56314;48.088;11.642;2023-06-22T09:09:09;8.63;;;5.80;;
26977;SDS011;56314;48.088;11.642;2023-06-22T09:11:35;8.00;;;5.72;;
26977;SDS011;56314;48.088;11.642;2023-06-22T09:14:00;10.32;;;5.18;;
26977;SDS011;56314;48.088;11.642;2023-06-22T09:16:26;7.18;;;5.53;;
26977;SDS011;56314;48.088;11.642;2023-06-22T09:18:51;7.57;;;5.40;;
26977;SDS011;56314;48.088;11.642;2023-06-22T09:21:17;8.10;;;5.13;;
26977;SDS011;56314;48.088;11.642;2023-06-22T09:23:42;9.07;;;5.05;;
26977;SDS011;56314;48.088;11.642;2023-06-22T09:26:07;10.52;;;5.40;;
26977;SDS011;56314;48.088;11.642;2023-06-22T09:28:33;11.20;;;5.43;;
26977;SDS011;56314;48.088;11.642;2023-06-22T09:30:59;10.88;;;5.15;;
26977;SDS011;56314;48.088;11.642;2023-06-22T09:33:25;11.93;;;6.15;;
26977;SDS011;56314;48.088;11.642;2023-06-22T09:35:51;9.05;;;6.13;;
26977;SDS011;56314;48.088;11.642;2023-06-22T09:38:16;10.13;;;5.30;;
26977;SDS011;56314;48.088;11.642;2023-06-22T09:40:42;12.30;;;5.95;;
26977;SDS011;56314;48.088;11.642;2023-06-22T09:43:07;8.70;;;5.50;;
26977;SDS011;56314;48.088;11.642;2023-06-22T09:45:33;8.38;;;4.78;;
26977;SDS011;56314;48.088;11.642;2023-06-22T09:47:58;7.10;;;5.13;;
26977;SDS011;56314;48.088;11.642;2023-06-22T09:50:24;10.95;;;5.63;;
26977;SDS011;56314;48.088;11.642;2023-06-22T09:52:49;9.70;;;5.47;;
26977;SDS011;56314;48.088;11.642;2023-06-22T09:55:15;9.48;;;5.38;;
26977;SDS011;56314;48.088;11.642;2023-06-22T09:57:41;10.90;;;5.18;;
26977;SDS011;56314;48.088;11.642;2023-06-22T10:00:06;8.02;;;5.05;;
26977;SDS011;56314;48.088;11.642;2023-06-22T10:02:38;8.10;;;4.72;;
26977;SDS011;56314;48.088;11.642;2023-06-22T10:05:03;10.63;;;5.45;;
26977;SDS011;56314;48.088;11.642;2023-06-22T10:07:29;10.75;;;5.68;;
26977;SDS011;56314;48.088;11.642;2023-06-22T10:09:54;12.60;;;5.53;;
26977;SDS011;56314;48.088;11.642;2023-06-22T10:12:19;10.47;;;5.00;;
26977;SDS011;56314;48.088;11.642;2023-06-22T10:14:45;6.70;;;5.03;;
26977;SDS011;56314;48.088;11.642;2023-06-22T10:17:10;8.57;;;4.93;;
26977;SDS011;56314;48.088;11.642;2023-06-22T10:19:35;9.18;;;4.40;;
26977;SDS011;56314;48.088;11.642;2023-06-22T10:22:02;11.73;;;4.75;;
26977;SDS011;56314;48.088;11.642;2023-06-22T10:24:29;7.72;;;5.30;;
26977;SDS011;56314;48.088;11.642;2023-06-22T10:26:54;9.10;;;5.10;;
26977;SDS011;56314;48.088;11.642;2023-06-22T10:29:20;8.15;;;5.78;;
26977;SDS011;56314;48.088;11.642;2023-06-22T10:31:45;6.63;;;4.43;;
26977;SDS011;56314;48.088;11.642;2023-06-22T10:34:10;8.10;;;4.87;;
26977;SDS011;56314;48.088;11.642;2023-06-22T10:36:36;8.73;;;5.00;;
26977;SDS011;56314;48.088;11.642;2023-06-22T10:39:01;8.48;;;5.25;;
26977;SDS011;56314;48.088;11.642;2023-06-22T10:41:27;7.60;;;5.07;;
26977;SDS011;56314;48.088;11.642;2023-06-22T10:43:55;7.28;;;4.93;;
26977;SDS011;56314;48.088;11.642;2023-06-22T10:46:20;17.15;;;5.43;;
26977;SDS011;56314;48.088;11.642;2023-06-22T10:48:46;11.48;;;5.40;;
26977;SDS011;56314;48.088;11.642;2023-06-22T10:51:11;8.80;;;4.85;;
26977;SDS011;56314;48.088;11.642;2023-06-22T10:53:36;11.57;;;5.38;;
26977;SDS011;56314;48.088;11.642;2023-06-22T10:56:02;11.43;;;5.13;;
26977;SDS011;56314;48.088;11.642;2023-06-22T10:58:27;15.35;;;5.82;;
26977;SDS011;56314;48.088;11.642;2023-06-22T11:00:53;8.70;;;5.00;;
26977;SDS011;56314;48.088;11.642;2023-06-22T11:03:18;8.20;;;4.68;;
26977;SDS011;56314;48.088;11.642;2023-06-22T11:05:43;8.15;;;5.25;;
26977;SDS011;56314;48.088;11.642;2023-06-22T11:08:09;9.38;;;5.18;;
26977;SDS011;56314;48.088;11.642;2023-06-22T11:10:34;6.72;;;4.93;;
26977;SDS011;56314;48.088;11.642;2023-06-22T11:12:59;5.80;;;4.68;;
26977;SDS011;56314;48.088;11.642;2023-06-22T11:15:25;10.00;;;5.18;;
26977;SDS011;56314;48.088;11.642;2023-06-22T11:17:50;12.63;;;5.95;;
26977;SDS011;56314;48.088;11.642;2023-06-22T11:20:16;9.48;;;5.75;;
26977;SDS011;56314;48.088;11.642;2023-06-22T11:22:41;12.05;;;5.25;;
26977;SDS011;56314;48.088;11.642;2023-06-22T11:25:07;10.55;;;5.07;;
26977;SDS011;56314;48.088;11.642;2023-06-22T11:27:33;8.95;;;4.60;;
26977;SDS011;56314;48.088;11.642;2023-06-22T11:29:59;9.23;;;5.43;;
26977;SDS011;56314;48.088;11.642;2023-06-22T11:32:24;10.55;;;5.57;;
26977;SDS011;56314;48.088;11.642;2023-06-22T11:34:50;8.48;;;4.95;;
26977;SDS011;56314;48.088;11.642;2023-06-22T11:37:15;9.48;;;5.28;;
26977;SDS011;56314;48.088;11.642;2023-06-22T11:39:41;10.77;;;5.57;;
26977;SDS011;56314;48.088;11.642;2023-06-22T11:42:07;13.48;;;5.22;;
26977;SDS011;56314;48.088;11.642;2023-06-22T11:44:33;11.45;;;5.20;;
26977;SDS011;56314;48.088;11.642;2023-06-22T11:46:58;11.52;;;5.00;;
26977;SDS011;56314;48.088;11.642;2023-06-22T11:49:25;10.70;;;4.72;;
26977;SDS011;56314;48.088;11.642;2023-06-22T11:51:51;11.32;;;5.35;;
26977;SDS011;56314;48.088;11.642;2023-06-22T11:54:16;7.35;;;4.75;;
26977;SDS011;56314;48.088;11.642;2023-06-22T11:56:42;8.18;;;4.65;;
26977;SDS011;56314;48.088;11.642;2023-06-22T11:59:07;6.22;;;4.95;;
26977;SDS011;56314;48.088;11.642;2023-06-22T12:01:32;10.05;;;4.97;;
26977;SDS011;56314;48.088;11.642;2023-06-22T12:03:58;16.10;;;5.75;;
26977;SDS011;56314;48.088;11.642;2023-06-22T12:06:23;10.18;;;4.82;;
26977;SDS011;56314;48.088;11.642;2023-06-22T12:08:49;11.27;;;5.38;;
26977;SDS011;56314;48.088;11.642;2023-06-22T12:11:14;12.37;;;4.73;;
26977;SDS011;56314;48.088;11.642;2023-06-22T12:13:39;9.95;;;5.40;;
26977;SDS011;56314;48.088;11.642;2023-06-22T12:16:05;11.60;;;5.25;;
26977;SDS011;56314;48.088;11.642;2023-06-22T12:18:30;8.57;;;4.77;;
26977;SDS011;56314;48.088;11.642;2023-06-22T12:20:55;9.57;;;5.20;;
26977;SDS011;56314;48.088;11.642;2023-06-22T12:23:20;7.20;;;5.13;;
26977;SDS011;56314;48.088;11.642;2023-06-22T12:25:46;11.43;;;5.40;;
26977;SDS011;56314;48.088;11.642;2023-06-22T12:28:11;8.93;;;4.65;;
26977;SDS011;56314;48.088;11.642;2023-06-22T12:30:37;10.82;;;5.88;;
26977;SDS011;56314;48.088;11.642;2023-06-22T12:33:02;9.25;;;5.47;;
26977;SDS011;56314;48.088;11.642;2023-06-22T12:35:27;8.02;;;4.53;;
26977;SDS011;56314;48.088;11.642;2023-06-22T12:37:53;14.77;;;5.63;;
26977;SDS011;56314;48.088;11.642;2023-06-22T12:40:18;11.40;;;4.93;;
26977;SDS011;56314;48.088;11.642;2023-06-22T12:42:44;8.40;;;5.50;;
26977;SDS011;56314;48.088;11.642;2023-06-22T12:45:10;9.65;;;5.05;;
26977;SDS011;56314;48.088;11.642;2023-06-22T12:47:35;11.50;;;5.10;;
26977;SDS011;56314;48.088;11.642;2023-06-22T12:50:01;7.70;;;5.30;;
26977;SDS011;56314;48.088;11.642;2023-06-22T12:52:26;12.65;;;5.72;;
26977;SDS011;56314;48.088;11.642;2023-06-22T12:54:51;10.55;;;5.32;;
26977;SDS011;56314;48.088;11.642;2023-06-22T12:57:17;10.43;;;4.75;;
26977;SDS011;56314;48.088;11.642;2023-06-22T12:59:44;11.02;;;5.03;;
26977;SDS011;56314;48.088;11.642;2023-06-22T13:02:09;14.07;;;5.47;;
26977;SDS011;56314;48.088;11.642;2023-06-22T13:04:35;14.80;;;5.50;;
26977;SDS011;56314;48.088;11.642;2023-06-22T13:07:00;8.87;;;5.73;;
26977;SDS011;56314;48.088;11.642;2023-06-22T13:09:26;8.50;;;4.73;;
26977;SDS011;56314;48.088;11.642;2023-06-22T13:11:51;7.97;;;4.57;;
26977;SDS011;56314;48.088;11.642;2023-06-22T13:14:17;9.38;;;4.68;;
26977;SDS011;56314;48.088;11.642;2023-06-22T13:16:43;14.10;;;5.47;;
26977;SDS011;56314;48.088;11.642;2023-06-22T13:19:08;10.00;;;4.60;;
26977;SDS011;56314;48.088;11.642;2023-06-22T13:21:33;7.17;;;4.80;;
26977;SDS011;56314;48.088;11.642;2023-06-22T13:23:59;12.48;;;5.60;;
26977;SDS011;56314;48.088;11.642;2023-06-22T13:26:25;9.60;;;5.60;;
26977;SDS011;56314;48.088;11.642;2023-06-22T13:28:50;9.73;;;4.95;;
26977;SDS011;56314;48.088;11.642;2023-06-22T13:31:15;9.70;;;5.38;;
26977;SDS011;56314;48.088;11.642;2023-06-22T13:33:41;11.57;;;5.22;;
26977;SDS011;56314;48.088;11.642;2023-06-22T13:36:07;9.07;;;5.32;;
26977;SDS011;56314;48.088;11.642;2023-06-22T13:38:32;9.25;;;4.63;;
26977;SDS011;56314;48.088;11.642;2023-06-22T13:40:59;11.07;;;5.07;;
26977;SDS011;56314;48.088;11.642;2023-06-22T13:43:26;8.82;;;4.85;;
26977;SDS011;56314;48.088;11.642;2023-06-22T13:45:52;7.15;;;4.60;;
26977;SDS011;56314;48.088;11.642;2023-06-22T13:48:17;7.63;;;5.50;;
26977;SDS011;56314;48.088;11.642;2023-06-22T13:50:43;11.20;;;5.68;;
26977;SDS011;56314;48.088;11.642;2023-06-22T13:53:08;10.95;;;5.35;;
26977;SDS011;56314;48.088;11.642;2023-06-22T13:55:33;16.20;;;5.10;;
26977;SDS011;56314;48.088;11.642;2023-06-22T13:57:59;9.85;;;5.00;;
26977;SDS011;56314;48.088;11.642;2023-06-22T14:00:24;11.83;;;4.80;;
26977;SDS011;56314;48.088;11.642;2023-06-22T14:02:49;8.30;;;5.05;;
26977;SDS011;56314;48.088;11.642;2023-06-22T14:05:15;11.35;;;4.97;;
26977;SDS011;56314;48.088;11.642;2023-06-22T14:07:41;9.93;;;5.50;;
26977;SDS011;56314;48.088;11.642;2023-06-22T14:10:06;13.87;;;5.00;;
26977;SDS011;56314;48.088;11.642;2023-06-22T14:12:32;11.18;;;4.63;;
26977;SDS011;56314;48.088;11.642;2023-06-22T14:14:57;7.75;;;5.03;;
26977;SDS011;56314;48.088;11.642;2023-06-22T14:17:22;9.93;;;5.20;;
26977;SDS011;56314;48.088;11.642;2023-06-22T14:19:50;8.93;;;4.85;;
26977;SDS011;56314;48.088;11.642;2023-06-22T14:22:17;10.35;;;5.07;;
26977;SDS011;56314;48.088;11.642;2023-06-22T14:24:44;8.23;;;4.72;;
26977;SDS011;56314;48.088;11.642;2023-06-22T14:27:09;9.40;;;4.57;;